Time;durP1;ratioP1;P1;durP2;ratioP2;P2;SDS_P1;SDS_P2;PMS_P1;PMS_P2;Temp;Humidity;BMP_temperature;BMP_pressure;BME280_temperature;BME280_humidity;BME280_pressure;Samples;Min_cycle;Max_cycle;Signal;HPM_P1;HPM_P2
2022/02/24 16:39:54;;;;;;;5.68;1.30;;;17.40;66.70;;;;;;10527566;27;20437;-63
2022/02/24 16:45:17;;;;;;;3.80;1.47;;;17.60;66.70;;;;;;10516314;28;20717;-64
2022/02/24 16:50:39;;;;;;;203.03;67.60;;;17.70;66.80;;;;;;10500437;28;20192;-64
2022/02/24 16:56:02;;;;;;;287.23;128.35;;;17.80;66.70;;;;;;10522191;28;20430;-64
2022/02/24 17:01:24;;;;;;;171.73;70.77;;;18.20;65.70;;;;;;10570558;28;20570;-64
2022/02/24 17:06:47;;;;;;;119.13;48.63;;;18.10;65.80;;;;;;10562694;28;20214;-64
2022/02/24 17:12:12;;;;;;;84.03;35.90;;;18.00;65.90;;;;;;10569128;28;20207;-64
2022/02/24 17:17:34;;;;;;;72.77;29.73;;;18.00;65.80;;;;;;10564562;28;20223;-64
2022/02/24 17:22:56;;;;;;;63.60;26.13;;;18.00;65.80;;;;;;10567992;28;20717;-64
2022/02/24 17:28:19;;;;;;;64.00;25.20;;;18.00;65.80;;;;;;10566051;28;20422;-64
2022/02/24 17:33:43;;;;;;;52.40;21.73;;;18.00;65.70;;;;;;10560281;28;20226;-64
2022/02/24 17:39:06;;;;;;;48.37;19.90;;;18.00;65.70;;;;;;10562942;28;20219;-64
2022/02/24 17:44:30;;;;;;;50.60;24.10;;;18.00;65.70;;;;;;10573376;28;20420;-62
2022/02/24 17:49:52;;;;;;;40.27;17.93;;;18.50;63.60;;;;;;10544568;28;20195;-62
2022/02/24 17:55:14;;;;;;;39.37;16.87;;;18.20;64.70;;;;;;10549985;28;20218;-61
2022/02/24 18:00:37;;;;;;;37.77;16.40;;;18.10;65.40;;;;;;10540916;28;20195;-62
2022/02/24 18:06:00;;;;;;;32.60;14.97;;;18.00;65.70;;;;;;10539409;28;20222;-62
2022/02/24 18:11:22;;;;;;;30.70;14.13;;;18.00;65.90;;;;;;10538544;28;20219;-62
2022/02/24 18:16:45;;;;;;;26.57;12.10;;;17.90;65.90;;;;;;10538978;28;20230;-62
2022/02/24 18:22:07;;;;;;;26.92;13.38;;;18.00;65.90;;;;;;10575869;28;20416;-63
2022/02/24 18:27:29;;;;;;;21.17;11.07;;;18.50;64.00;;;;;;10578759;28;20207;-63
2022/02/24 18:32:53;;;;;;;20.50;9.73;;;18.20;65.00;;;;;;10549686;28;20195;-63
2022/02/24 18:38:15;;;;;;;19.90;8.60;;;18.00;65.60;;;;;;10571516;28;20223;-64
2022/02/24 18:43:37;;;;;;;7.77;3.63;;;17.90;65.90;;;;;;10578740;28;20199;-60
2022/02/24 18:49:01;;;;;;;14.67;6.03;;;17.90;63.40;;;;;;10577631;28;20195;-59
2022/02/24 18:54:23;;;;;;;12.47;5.90;;;17.80;62.30;;;;;;10573312;28;20215;-58
2022/02/24 18:59:45;;;;;;;12.30;5.57;;;17.80;63.80;;;;;;10571656;28;20222;-60
2022/02/24 19:05:09;;;;;;;11.30;5.10;;;17.80;64.50;;;;;;10574015;28;20728;-59
2022/02/24 19:10:32;;;;;;;12.43;5.83;;;17.80;64.90;;;;;;10571130;28;20195;-59
2022/02/24 19:15:54;;;;;;;11.50;5.60;;;17.80;65.20;;;;;;10570795;28;20724;-59
2022/02/24 19:21:18;;;;;;;10.00;4.90;;;17.80;65.50;;;;;;10578564;28;20191;-57
2022/02/24 19:26:40;;;;;;;10.80;4.80;;;17.80;65.70;;;;;;10577641;28;20242;-60
2022/02/24 19:32:03;;;;;;;10.60;4.90;;;17.80;65.70;;;;;;10563655;28;20669;-63
2022/02/24 19:37:26;;;;;;;10.10;4.77;;;17.80;65.80;;;;;;10575658;28;20705;-64
2022/02/24 19:42:48;;;;;;;9.80;4.30;;;17.80;65.80;;;;;;10572493;28;20594;-64
2022/02/24 19:48:12;;;;;;;8.60;4.00;;;17.80;65.80;;;;;;10573041;28;20225;-64
2022/02/24 19:53:35;;;;;;;7.13;3.73;;;17.80;65.80;;;;;;10574208;28;20193;-64
2022/02/24 19:58:58;;;;;;;5.83;3.30;;;17.80;65.80;;;;;;10574432;28;20211;-64
2022/02/24 20:04:20;;;;;;;5.80;3.00;;;17.80;65.80;;;;;;10575257;28;20327;-64
2022/02/24 20:09:43;;;;;;;6.00;2.87;;;17.80;65.80;;;;;;10575681;28;20183;-64
2022/02/24 20:15:06;;;;;;;5.13;2.80;;;17.80;65.80;;;;;;10576002;28;20589;-64
2022/02/24 20:20:28;;;;;;;4.67;2.70;;;17.80;65.80;;;;;;10575226;28;20207;-64
2022/02/24 20:25:52;;;;;;;5.13;2.80;;;17.80;65.80;;;;;;10573025;28;20215;-65
2022/02/24 20:31:14;;;;;;;5.13;2.83;;;17.80;65.80;;;;;;10573345;28;20566;-64
2022/02/24 20:36:36;;;;;;;4.23;2.30;;;17.80;65.80;;;;;;10556556;28;20218;-64
2022/02/24 20:42:00;;;;;;;5.10;2.57;;;17.80;65.80;;;;;;10549818;28;20199;-64
2022/02/24 20:47:22;;;;;;;4.10;2.40;;;17.80;65.80;;;;;;10494439;28;20762;-63
2022/02/24 20:52:44;;;;;;;4.07;2.03;;;17.80;65.80;;;;;;10496059;28;20208;-64
2022/02/24 20:58:07;;;;;;;4.60;2.23;;;17.80;65.80;;;;;;10497062;28;20596;-64
2022/02/24 21:03:30;;;;;;;4.13;2.37;;;17.80;65.70;;;;;;10518277;28;20231;-63
2022/02/24 21:08:52;;;;;;;4.07;2.07;;;17.80;65.70;;;;;;10554645;28;20704;-64
2022/02/24 21:14:15;;;;;;;4.13;2.17;;;17.80;65.70;;;;;;10558847;28;21416;-64
2022/02/24 21:19:37;;;;;;;4.40;2.40;;;17.80;65.70;;;;;;10555901;28;20215;-64
2022/02/24 21:24:59;;;;;;;3.87;2.00;;;17.80;65.70;;;;;;10572471;28;20215;-64
2022/02/24 21:30:23;;;;;;;3.67;2.00;;;17.80;65.70;;;;;;10581989;28;20577;-63
2022/02/24 21:35:45;;;;;;;2.57;1.77;;;17.80;65.70;;;;;;10532875;22;20593;-64
2022/02/24 21:41:08;;;;;;;3.97;1.83;;;17.80;65.70;;;;;;10411153;28;20197;-63
2022/02/24 21:46:32;;;;;;;3.63;2.00;;;17.80;65.70;;;;;;10415876;28;20221;-64
2022/02/24 21:51:54;;;;;;;4.23;1.60;;;17.80;65.70;;;;;;10399205;28;20206;-63
2022/02/24 21:57:16;;;;;;;4.30;2.10;;;17.80;65.70;;;;;;10415659;28;20233;-63
2022/02/24 22:02:40;;;;;;;4.33;2.00;;;17.80;65.70;;;;;;10414613;28;20201;-63
2022/02/24 22:08:03;;;;;;;2.47;1.33;;;17.80;65.70;;;;;;10414924;28;20202;-64
2022/02/24 22:13:25;;;;;;;4.23;1.83;;;17.80;65.60;;;;;;10414116;28;20190;-63
2022/02/24 22:18:50;;;;;;;3.03;1.53;;;17.80;65.60;;;;;;10413269;28;20237;-63
2022/02/24 22:24:12;;;;;;;3.20;1.33;;;17.80;65.60;;;;;;10414282;28;20228;-63
2022/02/24 22:29:34;;;;;;;2.60;1.67;;;17.80;65.60;;;;;;10414582;28;20201;-63
2022/02/24 22:34:58;;;;;;;2.53;1.57;;;17.80;65.50;;;;;;10373594;28;20518;-64
2022/02/24 22:40:20;;;;;;;2.33;1.43;;;17.80;65.50;;;;;;10374174;28;20214;-62
2022/02/24 22:45:42;;;;;;;1.67;1.33;;;17.80;65.50;;;;;;10382603;28;20221;-64
2022/02/24 22:51:06;;;;;;;3.20;1.40;;;17.80;66.10;;;;;;10413188;28;20208;-63
2022/02/24 22:56:28;;;;;;;1.90;1.30;;;17.80;65.40;;;;;;10413471;28;20719;-63
2022/02/24 23:01:50;;;;;;;2.43;1.43;;;17.80;65.40;;;;;;10412382;28;20194;-64
2022/02/24 23:07:14;;;;;;;2.23;1.10;;;17.80;65.40;;;;;;10412939;28;20705;-63
2022/02/24 23:12:36;;;;;;;2.13;1.27;;;17.80;65.40;;;;;;10412012;28;20190;-63
2022/02/24 23:17:58;;;;;;;3.67;1.03;;;17.80;65.40;;;;;;10410756;28;20226;-64
2022/02/24 23:23:21;;;;;;;1.80;1.27;;;17.80;65.40;;;;;;10412633;28;20205;-63
2022/02/24 23:28:44;;;;;;;2.40;1.17;;;17.80;65.40;;;;;;10413021;28;20207;-63
2022/02/24 23:34:06;;;;;;;2.67;1.20;;;17.80;65.40;;;;;;10411059;28;20214;-63
2022/02/24 23:39:29;;;;;;;1.87;1.20;;;17.80;65.30;;;;;;10411863;28;20557;-63
2022/02/24 23:44:51;;;;;;;2.00;1.10;;;17.80;65.30;;;;;;10410295;28;20214;-63
2022/02/24 23:50:13;;;;;;;1.17;0.90;;;17.70;65.30;;;;;;10415009;28;20198;-63
2022/02/24 23:55:37;;;;;;;2.30;0.93;;;17.80;65.30;;;;;;10431422;28;20222;-63
